• Join FlightAware (Why Join?)
  • Login
  • US Flag 
07:53PM EST


 

Airport Tracker/Info


-or-


 

Live Flight TrackerFlight Track Log ✈ N15DF ✈ 15-Apr-2014 ✈ TIST / STT - KRSW

Flight Track Log - Related Links

Times and Time Zones

All times are in EDT time to prevent confusion due to time zone crossing. See the N15DF flight status page for this flight to view local times or setup timezone preferences in your user account.

Time Position Orientation Groundspeed Altitude Reporting Facility
EDT Latitude Longitude Course Direction KTS MPH feet Rate Location/Type
12:21PM 18.3333 -64.9500 155° Southeast 110 127 1,300  Level San Juan Center
12:22PM 18.3000 -64.9333 155° Southeast 180 207 2,800 1,260 Climbing San Juan Center
12:23PM 18.2667 -65.0000 242° Southwest 220 253 3,900 1,440 Climbing San Juan Center
12:24PM 18.2667 -65.0500 270° West 230 265 5,700 1,680 Climbing San Juan Center
12:25PM 18.2667 -65.1333 270° West 240 276 7,300 1,440 Climbing San Juan Center
12:26PM 18.2833 -65.2000 285° West 250 288 8,700 1,320 Climbing San Juan Center
12:27PM 18.3000 -65.2833 282° West 260 299 10,000 1,200 Climbing San Juan Center
12:28PM 18.3167 -65.3500 285° West 270 311 11,200 1,200 Climbing San Juan Center
12:29PM 18.3333 -65.4333 282° West 250 288 12,500 1,200 Climbing San Juan Center
12:30PM 18.3500 -65.5000 285° West 260 299 13,700 1,200 Climbing San Juan Center
12:31PM 18.3500 -65.5833 270° West 260 299 15,000 1,200 Climbing San Juan Center
12:32PM 18.3667 -65.6500 285° West 260 299 16,200 1,200 Climbing San Juan Center
12:33PM 18.3833 -65.7333 282° West 250 288 17,500 1,260 Climbing San Juan Center
12:34PM 18.4000 -65.8000 285° West 250 288 18,800 1,140 Climbing San Juan Center
12:35PM 18.4167 -65.8667 285° West 240 276 19,900 960 Climbing San Juan Center
12:36PM 18.4333 -65.9500 282° West 270 311 20,800 900 Climbing San Juan Center
12:37PM 18.4333 -66.0000 270° West 250 288 21,700 840 Climbing San Juan Center
12:38PM 18.4500 -66.1000 280° West 270 311 22,600 840 Climbing San Juan Center
12:39PM 18.4500 -66.1667 270° West 270 311 23,400 840 Climbing San Juan Center
12:40PM 18.4500 -66.2500 270° West 270 311 24,300 840 Climbing San Juan Center
12:41PM 18.4500 -66.3333 270° West 270 311 25,200 840 Climbing San Juan Center
12:42PM 18.4667 -66.4167 282° West 270 311 26,100 900 Climbing San Juan Center
12:43PM 18.4667 -66.4833 270° West 260 299 27,000 780 Climbing San Juan Center
12:44PM 18.4667 -66.5667 270° West 270 311 27,700 660 Climbing San Juan Center
12:45PM 18.4667 -66.6500 270° West 270 311 28,400 660 Climbing San Juan Center
12:46PM 18.4667 -66.7167 270° West 260 299 29,100 660 Climbing San Juan Center
12:47PM 18.4833 -66.8000 282° West 260 299 29,800 660 Climbing San Juan Center
12:48PM 18.5000 -66.8667 285° West 250 288 30,500 540 Climbing San Juan Center
12:49PM 18.5333 -66.9500 293° West 270 311 30,900 480 Climbing San Juan Center
12:50PM 18.5500 -67.0167 285° West 270 311 31,500 540 Climbing San Juan Center
12:51PM 18.5667 -67.1000 282° West 270 311 32,000 480 Climbing San Juan Center
12:52PM 18.5833 -67.1667 285° West 270 311 32,500 540 Climbing San Juan Center
12:53PM 18.6167 -67.2500 293° West 270 311 33,100 600 Climbing San Juan Center
12:54PM 18.6333 -67.3167 285° West 270 311 33,700 540 Climbing San Juan Center
12:55PM 18.6500 -67.4000 282° West 270 311 34,200 480 Climbing San Juan Center
12:56PM 18.6833 -67.4667 298° West 260 299 34,700 480 Climbing San Juan Center
12:57PM 18.7000 -67.5500 282° West 260 299 35,200 600 Climbing San Juan Center
12:58PM 18.7167 -67.6167 285° West 260 299 36,000 360 Climbing San Juan Center
12:59PM 18.7333 -67.6833 285° West 260 299 36,000  Level San Juan Center
01:00PM 18.7667 -67.7667 293° West 260 299 36,000  Level San Juan Center
01:01PM 18.7833 -67.8500 282° West 270 311 36,000  Level San Juan Center
01:02PM 18.8000 -67.9167 285° West 280 322 36,000  Level San Juan Center
01:03PM 18.8333 -68.0000 293° West 290 334 36,000  Level San Juan Center
01:04PM 18.8500 -68.0833 282° West 300 345 36,000  Level San Juan Center
01:05PM 18.8833 -68.1667 293° West 290 334 36,000  Level San Juan Center
01:06PM 18.9167 -68.2500 293° West 300 345 36,000  Level San Juan Center
01:27PM 19.5781 -70.0506 285° West 368 423 36,000  Level Miami Center
01:28PM 19.8368 -69.9324 285° West  Level FlightAware Approximate
01:28PM 19.6128 -70.1347 294° West 340 391 36,000  Level Miami Center
01:29PM 19.8600 -70.0249 285° West  Level FlightAware Approximate
01:29PM 19.6394 -70.2233 288° West 320 368 36,000  Level Miami Center
01:30PM 19.8831 -70.1174 285° West  Level FlightAware Approximate
01:30PM 19.6683 -70.3122 289° West 320 368 36,000  Level Miami Center
01:31PM 19.9062 -70.2100 285° West  Level FlightAware Approximate
01:31PM 19.7008 -70.3986 292° West 320 368 36,000  Level Miami Center
01:32PM 19.7317 -70.4853 291° West 320 368 36,000  Level Miami Center
01:33PM 19.7600 -70.5719 289° West 320 368 36,000  Level Miami Center
01:34PM 19.7967 -70.6561 295° West 320 368 36,000  Level Miami Center
01:35PM 19.8272 -70.7428 291° West 320 368 36,000  Level Miami Center
01:36PM 19.8617 -70.8272 293° West 320 368 36,000  Level Miami Center
01:37PM 19.8942 -70.9161 291° West 314 361 36,000  Level Miami Center
01:38PM 19.9267 -71.0006 292° West 314 361 36,000  Level Miami Center
01:39PM 19.9611 -71.0894 292° West 319 367 36,000  Level Miami Center
01:40PM 19.9933 -71.1742 292° West 319 367 36,000  Level Miami Center
01:41PM 20.0256 -71.2586 292° West 319 367 36,000  Level Miami Center
01:42PM 20.0600 -71.3478 292° West 319 367 36,000  Level Miami Center
01:43PM 20.0944 -71.4325 293° West 324 373 36,000  Level Miami Center
01:44PM 20.1286 -71.5194 293° West 324 373 36,000  Level Miami Center
01:45PM 20.1608 -71.6064 292° West 319 367 36,000  Level Miami Center
01:46PM 20.1950 -71.6956 292° West 324 373 36,000  Level Miami Center
01:47PM 20.2311 -71.7781 295° West 324 373 36,000  Level Miami Center
01:48PM 20.2653 -71.8675 292° West 324 373 36,000  Level Miami Center
01:49PM 20.2944 -71.9372 294° West 324 373 36,000  Level Miami Center
01:50PM 20.3286 -72.0311 291° West 324 373 36,000  Level Miami Center
01:51PM 20.3647 -72.1203 293° West 324 373 36,000  Level Miami Center
01:52PM 20.3967 -72.2078 291° West 324 373 36,000  Level Miami Center
01:53PM 20.4408 -72.2925 299° West 324 373 36,000  Level Miami Center
01:54PM 20.4889 -72.3683 304° West 324 373 36,000  Level Miami Center
01:55PM 20.5372 -72.4486 303° West 324 373 36,000  Level Miami Center
01:56PM 20.5853 -72.5292 303° West 324 373 36,000  Level Miami Center
01:57PM 20.6417 -72.6028 309° West 319 367 36,000  Level Miami Center
01:58PM 20.6978 -72.6742 310° West 319 367 36,000  Level Miami Center
01:59PM 20.7539 -72.7478 309° West 324 373 36,000  Level Miami Center
02:00PM 20.8103 -72.8217 309° West 319 367 36,000  Level Miami Center
02:01PM 20.8664 -72.8975 308° West 319 367 36,000  Level Miami Center
02:02PM 20.9244 -72.9692 311° West 319 367 36,000  Level Miami Center
02:03PM 20.9828 -73.0431 310° West 324 373 36,000  Level Miami Center
02:04PM 21.0367 -73.1169 308° West 319 367 36,000  Level Miami Center
02:05PM 21.0947 -73.1911 310° West 319 367 36,000  Level Miami Center
02:06PM 21.1508 -73.2631 310° West 319 367 36,000  Level Miami Center
02:07PM 21.2025 -73.3372 307° West 319 367 36,000  Level Miami Center
02:08PM 21.2606 -73.4114 310° West 319 367 36,000  Level Miami Center
02:09PM 21.3186 -73.4856 310° West 319 367 36,000  Level Miami Center
02:10PM 21.3722 -73.5556 309° West 319 367 36,000  Level Miami Center
02:11PM 21.4283 -73.6322 308° West 319 367 36,000  Level Miami Center
02:12PM 21.4839 -73.7044 310° West 318 366 36,000  Level Miami Center
02:13PM 21.5378 -73.7769 309° West 318 366 36,000  Level Miami Center
02:14PM 21.5933 -73.8517 309° West 318 366 36,000  Level Miami Center
02:15PM 21.6469 -73.9264 308° West 323 372 36,000  Level Miami Center
02:16PM 21.7050 -74.0008 310° West 317 365 36,000  Level Miami Center
02:17PM 21.7583 -74.0758 307° West 322 371 36,000  Level Miami Center
02:18PM 21.8142 -74.1575 306° West 322 371 36,000  Level Miami Center
02:19PM 21.8719 -74.2300 311° West 322 371 36,000  Level Miami Center
02:20PM 21.9294 -74.3028 310° West 322 371 36,000  Level Miami Center
02:21PM 21.9872 -74.3800 309° West 322 371 36,000  Level Miami Center
02:22PM 22.0406 -74.4550 308° West 322 371 36,000  Level Miami Center
02:23PM 22.0939 -74.5303 307° West 322 371 36,000  Level Miami Center
02:24PM 22.1494 -74.6056 309° West 322 371 36,000  Level Miami Center
02:25PM 22.2069 -74.6786 310° West 322 371 36,000  Level Miami Center
02:26PM 22.2603 -74.7564 307° West 322 371 36,000  Level Miami Center
02:27PM 22.3156 -74.8294 309° West 322 371 36,000  Level Miami Center
02:28PM 22.3728 -74.9050 309° West 322 371 36,000  Level Miami Center
02:29PM 22.4281 -74.9806 308° West 322 371 36,000  Level Miami Center
02:30PM 22.4833 -75.0561 308° West 322 371 36,000  Level Miami Center
02:31PM 22.5386 -75.1319 308° West 322 371 36,000  Level Miami Center
02:32PM 22.5936 -75.2075 308° West 322 371 36,000  Level Miami Center
02:33PM 22.6508 -75.2833 309° West 322 371 36,000  Level Miami Center
02:34PM 22.7039 -75.3592 307° West 322 371 36,000  Level Miami Center
02:35PM 22.7589 -75.4331 309° West 322 371 36,000  Level Miami Center
02:36PM 22.8161 -75.5111 309° West 322 371 36,000  Level Miami Center
02:37PM 22.8711 -75.5872 308° West 322 371 36,000  Level Miami Center
02:38PM 22.9261 -75.6633 308° West 322 371 36,000  Level Miami Center
02:39PM 22.9808 -75.7397 308° West 322 371 36,000  Level Miami Center
02:40PM 23.0294 -75.8069 308° West 322 371 36,000  Level Miami Center
02:41PM 23.0844 -75.8856 307° West 322 371 36,000  Level Miami Center
02:42PM 23.1392 -75.9619 308° West 322 371 36,000  Level Miami Center
02:43PM 23.1939 -76.0406 307° West 322 371 36,000  Level Miami Center
02:44PM 23.2508 -76.1172 309° West 322 371 36,000  Level Miami Center
02:45PM 23.3056 -76.1939 308° West 322 371 36,000  Level Miami Center
02:46PM 23.3600 -76.2706 308° West 322 371 36,000  Level Miami Center
02:47PM 23.4169 -76.3472 309° West 322 371 36,000  Level Miami Center
02:48PM 23.4736 -76.4217 310° West 322 371 36,000  Level Miami Center
02:49PM 23.5258 -76.5008 306° West 322 371 36,000  Level Miami Center
02:50PM 23.5825 -76.5778 309° West 322 371 36,000  Level Miami Center
02:51PM 23.6369 -76.6547 308° West 322 371 36,000  Level Miami Center
02:52PM 23.6914 -76.7319 308° West 322 371 36,000  Level Miami Center
02:53PM 23.7500 -76.8181 307° West 322 371 36,000  Level Miami Center
02:54PM 23.8064 -76.8953 309° West 322 371 36,000  Level Miami Center
02:55PM 23.8628 -76.9725 309° West 322 371 36,000  Level Miami Center
02:56PM 23.9172 -77.0497 308° West 322 371 36,000  Level Miami Center
02:57PM 23.9733 -77.1272 308° West 322 371 36,000  Level Miami Center
02:58PM 24.0256 -77.2069 306° West 322 371 36,000  Level Miami Center
02:59PM 24.0817 -77.2844 308° West 327 376 36,000  Level Miami Center
03:00PM 24.1358 -77.3597 308° West 322 371 36,000  Level Miami Center
03:01PM 24.1772 -77.4489 297° West 322 371 36,000  Level Miami Center
03:02PM 24.2019 -77.5219 290° West 317 365 36,000  Level Miami Center
03:03PM 24.2372 -77.6178 292° West 317 365 36,000  Level Miami Center
03:04PM 24.2681 -77.7092 290° West 317 365 36,000  Level Miami Center
03:05PM 24.2989 -77.8006 290° West 317 365 36,000  Level Miami Center
03:06PM 24.3275 -77.8919 289° West 317 365 36,000  Level Miami Center
03:07PM 24.3581 -77.9811 291° West 317 365 36,000  Level Miami Center
03:08PM 24.3889 -78.0750 290° West 322 371 36,000  Level Miami Center
03:09PM 24.4214 -78.1642 292° West 322 371 36,000  Level Miami Center
03:10PM 24.4519 -78.2558 290° West 322 371 36,000  Level Miami Center
03:11PM 24.4825 -78.3475 290° West 322 371 36,000  Level Miami Center
03:12PM 24.5108 -78.4369 289° West 322 371 36,000  Level Miami Center
03:13PM 24.5433 -78.5289 291° West 322 371 36,000  Level Miami Center
03:14PM 24.5694 -78.6206 287° West 322 371 36,000  Level Miami Center
03:15PM 24.6058 -78.7125 294° West 322 371 36,000  Level Miami Center
03:16PM 24.6361 -78.8044 290° West 322 371 36,000  Level Miami Center
03:17PM 24.6661 -78.9008 289° West 322 371 36,000  Level Miami Center
03:18PM 24.6942 -78.9906 289° West 316 364 36,000 -180 Level Miami Center
03:19PM 24.7242 -79.0803 290° West 316 364 35,700 -960 Descending Miami Center
03:20PM 24.7581 -79.1792 291° West 322 371 34,100 -1,500 Descending Miami Center
03:21PM 24.7900 -79.2828 289° West 346 398 32,800 -1,260 Descending Miami Center
03:22PM 24.8236 -79.3889 289° West 358 412 31,600 -1,200 Descending Miami Center
03:23PM 24.8594 -79.4903 291° West 358 412 30,400 -1,200 Descending Miami Center
03:24PM 24.8931 -79.5986 289° West 364 419 29,200 -1,200 Descending Miami Center
03:25PM 24.9267 -79.7050 289° West 369 425 28,100 -600 Descending Miami Center
03:26PM 24.9600 -79.8086 290° West 369 425 28,000 -60 Descending Miami Center
03:27PM 24.9914 -79.9058 290° West 358 412 28,000  Level Miami Center
03:28PM 25.0228 -80.0050 289° West 352 405 28,000  Level Miami Center
03:29PM 25.0542 -80.1044 289° West 352 405 28,000  Level Miami Center
03:30PM 25.0853 -80.2017 289° West 346 398 28,000  Level Miami Center
03:31PM 25.1167 -80.2989 290° West 346 398 28,000 -60 Level Miami Center
03:32PM 25.1478 -80.3961 289° West 346 398 27,900 -780 Descending Miami Center
03:33PM 25.1806 -80.5006 289° West 351 404 26,500 -1,500 Descending Miami Center
03:34PM 25.2136 -80.6025 290° West 351 404 25,000 -1,500 Descending Miami Center
03:35PM 25.2444 -80.7022 289° West 351 404 23,500 -1,560 Descending Miami Center
03:36PM 25.2753 -80.7997 289° West 351 404 21,900 -1,260 Descending Miami Center
03:37PM 25.3061 -80.8994 289° West 351 404 21,000 -480 Descending Miami Center
03:38PM 25.3367 -80.9992 289° West 351 404 21,000  Level Miami Center
03:39PM 25.3617 -81.0736 290° West 346 398 21,000 -540 Level Miami Center
03:40PM 25.3942 -81.1806 289° West 341 392 20,000 -1,140 Descending Miami Center
03:41PM 25.4247 -81.2783 289° West 341 392 18,800 -1,200 Descending Miami Center
03:42PM 25.4531 -81.3711 289° West 341 392 17,600 -1,320 Descending Miami Center
03:43PM 25.4817 -81.4619 289° West 328 377 16,200 -1,620 Descending Miami Center
03:44PM 25.5378 -81.5356 310° West 322 371 14,400 -1,800 Descending Miami Center
03:45PM 25.6250 -81.5503 351° North 288 331 12,600 -2,040 Descending Miami Center
03:46PM 25.7186 -81.5656 352° North 288 331 10,400 -1,320 Descending Miami Center
03:47PM 25.8017 -81.5825 350° North 300 345 10,000 -240 Descending Miami Center
03:48PM 25.8844 -81.5975 351° North 300 345 10,000  Level Miami Center
03:49PM 25.9653 -81.6169 348° North 295 339 10,000 -600 Level Miami Center
03:50PM 26.0400 -81.6336 349° North 289 333 8,800 -1,260 Descending Miami Center
03:51PM 26.1167 -81.6483 350° North 279 321 7,500 -1,320 Descending Miami Center
03:52PM 26.1811 -81.6625 349° North 268 308 6,200 -720 Descending Miami Center
03:53PM 26.2564 -81.6561 North 263 303 6,100 -60 Descending Miami Center
03:54PM 26.3283 -81.6267 20° North 269 310 6,100  Level Miami Center
03:55PM 26.4022 -81.5994 18° North 275 316 6,100  Level Miami Center
03:57PM 26.4912 -81.7028 343° North  Level Estimated
04:04PM 26.5333 -81.7500 42° Northeast  Level FlightAware Approximate
04:05PM 26.5362 -81.7552 42° Northeast  Level Estimated
04:06PM 26.5333 -81.7500 42° Northeast  Level FlightAware Approximate
04:07PM 26.5362 -81.7552 42° Northeast  Level Estimated
04:08PM 26.5333 -81.7500 42° Northeast  Level FlightAware Approximate
04:09PM 26.5362 -81.7552 42° Northeast  Level Estimated
04:10PM 26.5333 -81.7500 42° Northeast  Level FlightAware Approximate
04:11PM 26.5362 -81.7552 42° Northeast  Level Estimated